VCBI/CMB METAR and TAF weather

Enter ICAO airport designator
Station Type Date Time Source
VCBI METAR 2019/08/24 09:10 UTC NOAA

VCBI 240910Z 23011KT 220V280 9999 SCT017 29/26 Q1009 NOSIG


Station Type Date Time Source
VCBI Decoded METAR 2019/08/24 09:10 UTC NOAA

Station name not available
Aug 24, 2019 - 05:10 AM EDT / 2019.08.24 0910 UTC
Wind: from the SW (230 degrees) at 13 MPH (11 KT) (direction variable):0
Visibility: greater than 7 mile(s):0
Sky conditions: partly cloudy
Temperature: 84 F (29 C)
Dew Point: 78 F (26 C)
Relative Humidity: 83%
Pressure (altimeter): 29.80 in. Hg (1009 hPa)
ob: VCBI 240910Z 23011KT 220V280 9999 SCT017 29/26 Q1009 NOSIG
cycle: 9

Station Type Date Time Source
VCBI TAF 2019/08/24 06:03 UTC NOAA

TAF TAF VCBI 240500Z 2406/2512 22010KT 9999 SCT017 TX30/2408Z TN25/2500Z PROB40
TEMPO 2408/2416 7000 -TSRA/SHRA FEW012 SCT016 FEW020CB

Example: see airport list